Paducah, KY

8:36 AM CST on February 19, 2017 (GMT -0600)
Ricks Place Paducah, KY | | Change Station
Active Advisory: Dense Fog Advisory

Elev 351 ft 37.07 °N, 88.62 °W | Updated 3 seconds ago

Fog
Fog
48.9 °F
Feels Like 49 °F
N
1.0
Wind Variable Wind from SSW

Today
High -- | Low -- °F
--% Chance of Precip.
Yesterday
High -- | Low -- °F
Precip. -- in
Pressure 30.09 in
Visibility 0.2 miles
Clouds
Windchill 49 °F
Dew Point 48 °F
Humidity 98%
Rainfall 0.00 in
Snow Depth Not available.
6:38 AM 5:39 PM
Last Quarter, 43% visible
METAR KPAH 191353Z 00000KT M1/4SM FG VV002 08/07 A3009 RMK AO2 SLP190 T00830072
Pressure 30.09 in
Visibility 0.2 miles
Clouds
Windchill 49 °F
Dew Point 48 °F
Humidity 98%
Rainfall 0.00 in
Snow Depth Not available.
6:38 AM 5:39 PM
Last Quarter, 43% visible
METAR KPAH 191353Z 00000KT M1/4SM FG VV002 08/07 A3009 RMK AO2 SLP190 T00830072

Get Your Daily Forecast Email!

Thanks for signing up!

Be on the lookout for a verification email in your inbox.

You'll start receiving the daily forecast at 8 AM.

×

10-Day Weather Forecast

Almanac

Astronomy

Feb. 19, 2017 Rise Set
Actual Time
Civil Twilight
Nautical Twilight
Astronomical Twilight
Moon
Length of Visible Light
Length of Day
Tomorrow will be .
, % of the Moon is Illuminated

Today's Extremes

State Highs State Lows

Community

WunderPhotos

Upload Photos

1,962,540 photos uploaded!

WunderBlog® & News

Nearby

Air Quality

  Air Quality AQ Index Pollutant
Not available.

Snow Depth

Station Depth Elevation

Earthquake Activity

City Distance Mag. Time & Date
Minimum magnitude displayed is 2.5.

Coastal Water Temperatures

Place Temperature

Stations

Nearby Weather Stations

Station Location Temp. Windchill Dew Point Humidity Wind Precip. Elev Updated Type
                   

Watches & Warnings

Dense Fog Advisory
Issued: 7:56 AM CST Feb. 19, 2017 – National Weather Service

... Dense fog advisory now in effect until 11 am CST this
morning...

* visibility... dense fog will reduce visibility to a quarter mile
or less over much of the region this morning. It may take most
of the morning for the fog to improve, especially over southeast
Missouri, west Kentucky, and the southern tip of Illinois.

* Impacts... travel will be hampered by the lowered visibilities.
Use low beam headlights... and allow extra time to reach your
destination this morning.

Precautionary/preparedness actions...

A dense fog advisory means visibilities will frequently be
reduced to less than one quarter mile. If driving... slow down...
use your headlights... and leave plenty of distance ahead of you



Drs